createdAt,value
2018-04-29T00:00:35.313Z,9.32
2018-04-29T00:01:35.327Z,9.38
2018-04-29T00:02:35.340Z,9.39
2018-04-29T00:03:35.354Z,9.32
2018-04-29T00:04:35.366Z,9.35
2018-04-29T00:05:35.381Z,9.38
2018-04-29T00:06:35.394Z,9.32
2018-04-29T00:07:35.411Z,9.31
2018-04-29T00:08:35.422Z,9.26
2018-04-29T00:09:35.436Z,9.24
2018-04-29T00:10:35.451Z,9.28
2018-04-29T00:11:35.463Z,9.24
2018-04-29T00:12:35.477Z,9.35
2018-04-29T00:13:35.490Z,9.17
2018-04-29T00:14:35.503Z,9.29
2018-04-29T00:15:35.517Z,9.23
2018-04-29T00:16:35.530Z,9.23
2018-04-29T00:17:35.544Z,9.31
2018-04-29T00:18:35.559Z,9.23
2018-04-29T00:19:35.576Z,9.24
2018-04-29T00:20:35.583Z,9.23
2018-04-29T00:21:35.597Z,9.24
2018-04-29T00:22:35.605Z,9.35
2018-04-29T00:23:35.623Z,9.35
2018-04-29T00:24:35.631Z,9.32
2018-04-29T00:25:35.646Z,9.20
2018-04-29T00:26:35.659Z,9.24
2018-04-29T00:27:35.673Z,9.29
2018-04-29T00:28:35.687Z,9.33
2018-04-29T00:29:35.699Z,9.23
2018-04-29T00:30:35.713Z,9.23
2018-04-29T00:31:35.726Z,9.26
2018-04-29T00:32:35.738Z,9.23
2018-04-29T00:33:35.753Z,9.23
2018-04-29T00:34:35.766Z,9.38
2018-04-29T00:35:35.780Z,9.36
2018-04-29T00:36:35.794Z,9.29
2018-04-29T00:37:35.805Z,9.33
2018-04-29T00:38:35.896Z,9.31
2018-04-29T00:39:35.836Z,9.32
2018-04-29T00:40:35.845Z,9.28
2018-04-29T00:41:35.858Z,9.29
2018-04-29T00:42:35.874Z,9.39
2018-04-29T00:43:35.893Z,9.39
2018-04-29T00:44:35.899Z,9.42
2018-04-29T00:45:35.913Z,9.36
2018-04-29T00:46:35.930Z,9.39
2018-04-29T00:47:35.942Z,9.38
2018-04-29T00:48:35.953Z,9.36
2018-04-29T00:49:35.968Z,9.36
2018-04-29T00:50:35.982Z,9.39
2018-04-29T00:51:35.994Z,9.42
2018-04-29T00:52:36.009Z,9.35
2018-04-29T00:53:36.020Z,9.32
2018-04-29T00:54:36.037Z,9.38
2018-04-29T00:55:36.054Z,9.29
2018-04-29T00:56:36.061Z,9.32
2018-04-29T00:57:36.073Z,9.38
2018-04-29T00:58:36.089Z,9.43
2018-04-29T00:59:36.101Z,9.40
2018-04-29T01:00:36.114Z,9.40
2018-04-29T01:01:36.127Z,9.38
2018-04-29T01:02:36.142Z,9.40
2018-04-29T01:03:36.156Z,9.40
2018-04-29T01:04:36.172Z,9.40
2018-04-29T01:05:36.185Z,9.46
2018-04-29T01:06:36.200Z,9.32
2018-04-29T01:07:36.210Z,9.47
2018-04-29T01:08:36.224Z,9.43
2018-04-29T01:09:36.241Z,9.48
2018-04-29T01:10:36.250Z,9.47
2018-04-29T01:11:36.263Z,9.47
2018-04-29T01:12:36.276Z,9.39
2018-04-29T01:13:36.294Z,9.36
2018-04-29T01:14:36.304Z,9.21
2018-04-29T01:15:36.316Z,9.20
2018-04-29T01:16:36.329Z,9.17
2018-04-29T01:17:36.345Z,9.10
2018-04-29T01:18:36.358Z,9.10
2018-04-29T01:19:36.371Z,9.13
2018-04-29T01:20:36.383Z,9.08
2018-04-29T01:21:36.397Z,9.13
2018-04-29T01:22:36.411Z,9.14
2018-04-29T01:23:36.428Z,9.14
2018-04-29T01:24:36.436Z,9.10
2018-04-29T01:25:36.456Z,9.15
2018-04-29T01:26:36.463Z,9.10
2018-04-29T01:27:36.478Z,9.05
2018-04-29T01:28:36.492Z,9.05
2018-04-29T01:29:36.505Z,8.91
2018-04-29T01:30:36.520Z,8.84
2018-04-29T01:31:36.531Z,8.81
2018-04-29T01:32:36.548Z,8.81
2018-04-29T01:33:36.557Z,8.89
2018-04-29T01:34:36.572Z,8.76
2018-04-29T01:35:36.584Z,8.91
2018-04-29T01:36:36.597Z,8.77
2018-04-29T01:37:36.611Z,8.71
2018-04-29T01:38:36.625Z,8.71
2018-04-29T01:39:36.637Z,8.77
2018-04-29T01:40:36.649Z,8.73
2018-04-29T01:41:36.660Z,8.80
2018-04-29T01:42:36.675Z,8.81
2018-04-29T01:43:36.688Z,8.77
2018-04-29T01:44:36.700Z,8.87
2018-04-29T01:45:36.715Z,8.87
2018-04-29T01:46:36.737Z,8.81
2018-04-29T01:47:36.739Z,8.96
2018-04-29T01:48:36.752Z,8.95
2018-04-29T01:49:36.766Z,9.04
2018-04-29T01:50:36.783Z,9.01
2018-04-29T01:51:36.870Z,9.10
2018-04-29T01:52:36.807Z,9.10
2018-04-29T01:53:36.817Z,9.10
2018-04-29T01:54:36.829Z,9.11
2018-04-29T01:55:36.845Z,9.13
2018-04-29T01:56:36.857Z,9.13
2018-04-29T01:57:36.869Z,9.17
2018-04-29T01:58:36.882Z,9.15
2018-04-29T01:59:36.894Z,9.18
2018-04-29T02:00:36.907Z,9.20
2018-04-29T02:01:36.921Z,9.20
2018-04-29T02:02:36.935Z,9.17
2018-04-29T02:03:36.949Z,9.14
2018-04-29T02:04:36.957Z,9.13
2018-04-29T02:05:36.972Z,9.04
2018-04-29T02:06:36.986Z,9.15
2018-04-29T02:07:36.998Z,9.04
2018-04-29T02:08:37.010Z,9.10
2018-04-29T02:09:37.027Z,9.11
2018-04-29T02:10:37.039Z,9.11
2018-04-29T02:11:37.051Z,9.14
2018-04-29T02:12:37.067Z,9.08
2018-04-29T02:13:37.075Z,9.14
2018-04-29T02:14:37.088Z,9.13
2018-04-29T02:15:37.102Z,9.13
2018-04-29T02:16:37.119Z,9.13
2018-04-29T02:17:37.126Z,9.17
2018-04-29T02:18:37.140Z,9.20
2018-04-29T02:19:37.155Z,9.15
2018-04-29T02:20:37.166Z,9.13
2018-04-29T02:21:37.180Z,9.08
2018-04-29T02:22:37.195Z,8.95
2018-04-29T02:23:37.206Z,9.13
2018-04-29T02:24:37.216Z,9.10
2018-04-29T02:25:37.232Z,9.11
2018-04-29T02:26:37.245Z,9.10
2018-04-29T02:27:37.259Z,8.99
2018-04-29T02:28:37.270Z,9.01
2018-04-29T02:29:37.290Z,8.84
2018-04-29T02:30:37.298Z,8.83
2018-04-29T02:31:37.310Z,8.83
2018-04-29T02:32:37.325Z,8.79
2018-04-29T02:33:37.338Z,8.76
2018-04-29T02:34:37.350Z,8.91
2018-04-29T02:35:37.368Z,8.71
2018-04-29T02:36:37.375Z,8.80
2018-04-29T02:37:37.388Z,8.79
2018-04-29T02:38:37.406Z,8.74
2018-04-29T02:39:37.416Z,8.77
2018-04-29T02:40:37.432Z,8.74
2018-04-29T02:41:37.442Z,8.79
2018-04-29T02:42:37.454Z,8.70
2018-04-29T02:43:37.468Z,8.77
2018-04-29T02:44:37.476Z,8.73
2018-04-29T02:45:37.491Z,8.76
2018-04-29T02:46:37.509Z,8.77
2018-04-29T02:47:37.519Z,8.68
2018-04-29T02:48:37.532Z,8.74
2018-04-29T02:49:37.547Z,8.80
2018-04-29T02:50:37.558Z,8.74
2018-04-29T02:51:37.570Z,8.81
2018-04-29T02:52:37.583Z,8.74
2018-04-29T02:53:37.596Z,8.87
2018-04-29T02:54:37.610Z,8.81
2018-04-29T02:55:37.621Z,8.77
2018-04-29T02:56:37.637Z,8.76
2018-04-29T02:57:37.646Z,8.80
2018-04-29T02:58:37.659Z,8.84
2018-04-29T02:59:37.672Z,8.80
2018-04-29T03:00:37.693Z,8.84
2018-04-29T03:01:37.698Z,8.84
2018-04-29T03:02:37.716Z,8.83
2018-04-29T03:03:37.725Z,8.83
2018-04-29T03:04:37.741Z,8.84
2018-04-29T03:05:37.748Z,8.96
2018-04-29T03:06:37.763Z,8.86
2018-04-29T03:07:37.777Z,8.94
2018-04-29T03:08:37.787Z,8.94
2018-04-29T03:09:37.798Z,8.94
2018-04-29T03:10:37.814Z,8.94
2018-04-29T03:11:37.828Z,8.92
2018-04-29T03:12:37.838Z,8.96
2018-04-29T03:13:37.851Z,8.96
2018-04-29T03:14:37.865Z,8.95
2018-04-29T03:15:37.877Z,9.02
2018-04-29T03:16:37.890Z,9.04
2018-04-29T03:17:37.902Z,8.98
2018-04-29T03:18:37.917Z,8.89
2018-04-29T03:19:37.930Z,9.01
2018-04-29T03:20:37.942Z,8.83
2018-04-29T03:21:37.956Z,8.80
2018-04-29T03:22:37.971Z,8.80
2018-04-29T03:23:37.980Z,8.86
2018-04-29T03:24:37.993Z,8.76
2018-04-29T03:25:38.007Z,8.80
2018-04-29T03:26:38.020Z,8.80
2018-04-29T03:27:38.033Z,8.79
2018-04-29T03:28:38.046Z,8.94
2018-04-29T03:29:38.060Z,8.80
2018-04-29T03:30:38.073Z,8.81
2018-04-29T03:31:38.085Z,8.80
2018-04-29T03:32:38.096Z,8.79
2018-04-29T03:33:38.110Z,8.83
2018-04-29T03:34:38.122Z,8.80
2018-04-29T03:35:38.135Z,8.84
2018-04-29T03:36:38.147Z,8.83
2018-04-29T03:37:38.162Z,8.81
2018-04-29T03:38:38.177Z,8.87
2018-04-29T03:39:38.188Z,8.86
2018-04-29T03:40:38.199Z,8.81
2018-04-29T03:41:38.213Z,8.74
2018-04-29T03:42:38.225Z,8.74
2018-04-29T03:43:38.239Z,8.76
2018-04-29T03:44:38.252Z,8.79
2018-04-29T03:45:38.264Z,8.76
2018-04-29T03:46:38.276Z,8.83
2018-04-29T03:47:38.288Z,8.94
2018-04-29T03:48:38.300Z,8.95
2018-04-29T03:49:38.314Z,8.83
2018-04-29T03:50:38.326Z,8.81
2018-04-29T03:51:38.340Z,8.80
2018-04-29T03:52:38.351Z,8.74
2018-04-29T03:53:38.369Z,8.76
2018-04-29T03:54:38.377Z,8.59
2018-04-29T03:55:38.392Z,8.59
2018-04-29T03:56:38.402Z,8.59
2018-04-29T03:57:38.415Z,8.55
2018-04-29T03:58:38.429Z,8.52
2018-04-29T03:59:38.441Z,8.48
2018-04-29T04:00:38.454Z,8.58
2018-04-29T04:01:38.466Z,8.59
2018-04-29T04:02:38.504Z,8.59
2018-04-29T04:03:38.491Z,8.65
2018-04-29T04:04:38.504Z,8.63
2018-04-29T04:05:38.516Z,8.62
2018-04-29T04:06:38.528Z,8.62
2018-04-29T04:07:38.543Z,8.61
2018-04-29T04:08:38.554Z,8.61
2018-04-29T04:09:38.590Z,8.63
2018-04-29T04:10:38.580Z,8.56
2018-04-29T04:11:38.591Z,8.59
2018-04-29T04:12:38.603Z,8.59
2018-04-29T04:13:38.617Z,8.47
2018-04-29T04:14:38.629Z,8.62
2018-04-29T04:15:38.642Z,8.50
2018-04-29T04:16:38.661Z,8.61
2018-04-29T04:17:38.668Z,8.55
2018-04-29T04:18:38.683Z,8.44
2018-04-29T04:19:38.694Z,8.44
2018-04-29T04:20:38.704Z,8.43
2018-04-29T04:21:38.718Z,8.41
2018-04-29T04:22:38.736Z,8.33
2018-04-29T04:23:38.755Z,8.33
2018-04-29T04:24:38.755Z,8.37
2018-04-29T04:25:38.770Z,8.45
2018-04-29T04:26:38.784Z,8.50
2018-04-29T04:27:38.794Z,8.59
2018-04-29T04:28:38.807Z,8.59
2018-04-29T04:29:38.818Z,8.58
2018-04-29T04:30:38.830Z,8.56
2018-04-29T04:31:38.842Z,8.59
2018-04-29T04:32:38.855Z,8.59
2018-04-29T04:33:38.866Z,8.58
2018-04-29T04:34:38.879Z,8.61
2018-04-29T04:35:38.893Z,8.66
2018-04-29T04:36:38.908Z,8.62
2018-04-29T04:37:38.917Z,8.44
2018-04-29T04:38:38.933Z,8.61
2018-04-29T04:39:38.941Z,8.62
2018-04-29T04:40:38.958Z,8.73
2018-04-29T04:41:38.970Z,8.71
2018-04-29T04:42:38.980Z,8.80
2018-04-29T04:43:38.991Z,8.70
2018-04-29T04:44:39.002Z,8.77
2018-04-29T04:45:39.017Z,8.80
2018-04-29T04:46:39.027Z,8.80
2018-04-29T04:47:39.045Z,8.76
2018-04-29T04:49:39.065Z,8.86
2018-04-29T04:50:39.175Z,8.83
2018-04-29T04:51:39.091Z,8.77
2018-04-29T04:52:39.102Z,8.77
2018-04-29T04:53:39.118Z,8.76
2018-04-29T04:54:39.126Z,8.79
2018-04-29T04:55:39.144Z,8.70
2018-04-29T04:56:39.153Z,8.68
2018-04-29T04:57:39.165Z,8.66
2018-04-29T04:58:39.178Z,8.77
2018-04-29T04:59:39.191Z,8.79
2018-04-29T05:00:39.205Z,8.84
2018-04-29T05:01:39.216Z,8.91
2018-04-29T05:02:39.228Z,8.79
2018-04-29T05:03:39.240Z,8.86
2018-04-29T05:04:39.251Z,8.86
2018-04-29T05:05:39.268Z,8.95
2018-04-29T05:06:39.277Z,9.02
2018-04-29T05:07:39.290Z,9.04
2018-04-29T05:08:39.302Z,9.08
2018-04-29T05:09:39.315Z,9.01
2018-04-29T05:10:39.327Z,9.01
2018-04-29T05:11:39.340Z,9.08
2018-04-29T05:12:39.352Z,8.95
2018-04-29T05:13:39.388Z,8.99
2018-04-29T05:14:39.379Z,9.10
2018-04-29T05:15:39.391Z,9.08
2018-04-29T05:16:39.403Z,9.04
2018-04-29T05:17:39.416Z,9.15
2018-04-29T05:18:39.430Z,9.13
2018-04-29T05:19:39.443Z,9.15
2018-04-29T05:20:39.461Z,9.14
2018-04-29T05:21:39.468Z,9.01
2018-04-29T05:22:39.481Z,9.08
2018-04-29T05:23:39.494Z,9.04
2018-04-29T05:24:39.505Z,9.04
2018-04-29T05:25:39.522Z,9.02
2018-04-29T05:26:39.533Z,8.94
2018-04-29T05:27:39.545Z,8.95
2018-04-29T05:28:39.558Z,8.86
2018-04-29T05:29:39.569Z,8.83
2018-04-29T05:30:39.585Z,8.94
2018-04-29T05:31:39.596Z,8.92
2018-04-29T05:32:39.610Z,8.92
2018-04-29T05:33:39.624Z,8.94
2018-04-29T05:34:39.639Z,8.95
2018-04-29T05:35:39.648Z,8.98
2018-04-29T05:36:39.664Z,8.94
2018-04-29T05:37:39.674Z,8.96
2018-04-29T05:38:39.686Z,9.05
2018-04-29T05:39:39.700Z,8.98
2018-04-29T05:40:39.710Z,8.98
2018-04-29T05:41:39.722Z,8.99
2018-04-29T05:42:39.738Z,9.04
2018-04-29T05:43:39.753Z,9.04
2018-04-29T05:44:39.766Z,9.08
2018-04-29T05:45:39.776Z,9.10
2018-04-29T05:46:39.788Z,9.14
2018-04-29T05:47:39.801Z,9.08
2018-04-29T05:48:39.813Z,9.05
2018-04-29T05:49:39.826Z,9.08
2018-04-29T05:50:39.840Z,9.04
2018-04-29T05:51:39.852Z,9.10
2018-04-29T05:52:39.866Z,9.05
2018-04-29T05:53:39.881Z,9.14
2018-04-29T05:54:39.892Z,9.08
2018-04-29T05:55:39.905Z,9.05
2018-04-29T05:56:39.916Z,9.15
2018-04-29T05:57:39.935Z,9.14
2018-04-29T05:58:39.944Z,9.23
2018-04-29T05:59:39.956Z,9.31
2018-04-29T06:00:39.969Z,9.36
2018-04-29T06:01:39.982Z,9.39
2018-04-29T06:02:39.995Z,9.36
2018-04-29T06:03:40.009Z,9.51
2018-04-29T06:04:40.021Z,9.54
2018-04-29T06:05:40.035Z,9.56
2018-04-29T06:06:40.188Z,9.61
2018-04-29T06:07:40.062Z,9.65
2018-04-29T06:08:40.074Z,9.71
2018-04-29T06:09:40.090Z,9.66
2018-04-29T06:10:40.109Z,9.64
2018-04-29T06:11:40.113Z,9.71
2018-04-29T06:12:40.126Z,9.61
2018-04-29T06:13:40.140Z,9.68
2018-04-29T06:14:40.153Z,9.75
2018-04-29T06:15:40.166Z,9.75
2018-04-29T06:16:40.183Z,9.75
2018-04-29T06:17:40.192Z,9.69
2018-04-29T06:18:40.205Z,9.76
2018-04-29T06:19:40.220Z,9.75
2018-04-29T06:20:40.230Z,9.74
2018-04-29T06:21:40.244Z,9.76
2018-04-29T06:22:40.256Z,9.74
2018-04-29T06:23:40.270Z,9.78
2018-04-29T06:24:40.283Z,9.76
2018-04-29T06:25:40.298Z,9.74
2018-04-29T06:26:40.309Z,9.68
2018-04-29T06:27:40.324Z,9.71
2018-04-29T06:28:40.336Z,9.72
2018-04-29T06:29:40.348Z,9.61
2018-04-29T06:30:40.362Z,9.75
2018-04-29T06:31:40.373Z,9.69
2018-04-29T06:32:40.393Z,9.86
2018-04-29T06:33:40.403Z,9.89
2018-04-29T06:34:40.414Z,9.87
2018-04-29T06:35:40.427Z,10.02
2018-04-29T06:36:40.440Z,10.09
2018-04-29T06:37:40.453Z,10.11
2018-04-29T06:38:40.469Z,10.17
2018-04-29T06:39:40.480Z,10.18
2018-04-29T06:40:40.495Z,10.25
2018-04-29T06:41:40.507Z,10.29
2018-04-29T06:42:40.519Z,10.32
2018-04-29T06:43:40.534Z,10.33
2018-04-29T06:44:40.546Z,10.26
2018-04-29T06:45:40.561Z,10.23
2018-04-29T06:46:40.572Z,10.30
2018-04-29T06:47:40.585Z,10.32
2018-04-29T06:48:40.598Z,10.23
2018-04-29T06:49:40.614Z,10.30
2018-04-29T06:50:40.711Z,10.32
2018-04-29T06:51:40.639Z,10.38
2018-04-29T06:52:40.651Z,10.34
2018-04-29T06:53:40.666Z,10.27
2018-04-29T06:54:40.682Z,10.12
2018-04-29T06:55:40.694Z,10.15
2018-04-29T06:56:40.705Z,10.15
2018-04-29T06:57:40.718Z,10.30
2018-04-29T06:58:40.737Z,10.23
2018-04-29T06:59:40.746Z,10.27
2018-04-29T07:00:40.761Z,10.22
2018-04-29T07:01:40.772Z,10.17
2018-04-29T07:02:40.786Z,10.25
2018-04-29T07:03:40.799Z,10.30
2018-04-29T07:04:40.815Z,10.32
2018-04-29T07:05:40.826Z,10.33
2018-04-29T07:06:40.839Z,10.53
2018-04-29T07:07:40.850Z,10.56
2018-04-29T07:08:40.864Z,10.71
2018-04-29T07:09:40.880Z,10.91
2018-04-29T07:10:40.895Z,11.00
2018-04-29T07:11:40.906Z,11.04
2018-04-29T07:12:40.922Z,11.10
2018-04-29T07:13:40.938Z,11.14
2018-04-29T07:14:40.945Z,11.18
2018-04-29T07:15:40.961Z,11.29
2018-04-29T07:16:40.976Z,11.27
2018-04-29T07:17:40.987Z,11.39
2018-04-29T07:18:41.006Z,11.60
2018-04-29T07:19:41.013Z,11.86
2018-04-29T07:20:41.027Z,11.73
2018-04-29T07:21:41.049Z,11.36
2018-04-29T07:22:41.052Z,11.28
2018-04-29T07:23:41.072Z,11.32
2018-04-29T07:24:41.084Z,11.36
2018-04-29T07:25:41.096Z,11.46
2018-04-29T07:26:41.111Z,11.52
2018-04-29T07:27:41.129Z,11.52
2018-04-29T07:28:41.145Z,11.54
2018-04-29T07:29:41.157Z,11.60
2018-04-29T07:30:41.165Z,11.69
2018-04-29T07:31:41.178Z,11.80
2018-04-29T07:32:41.191Z,11.52
2018-04-29T07:33:41.208Z,11.44
2018-04-29T07:34:41.219Z,11.52
2018-04-29T07:35:41.233Z,11.61
2018-04-29T07:36:41.248Z,11.72
2018-04-29T07:37:41.264Z,11.75
2018-04-29T07:38:41.322Z,11.83
2018-04-29T07:39:41.305Z,11.98
2018-04-29T07:40:41.303Z,11.95
2018-04-29T07:41:41.317Z,11.90
2018-04-29T07:42:41.333Z,12.17
2018-04-29T07:43:41.344Z,12.38
2018-04-29T07:44:41.357Z,12.37
2018-04-29T07:45:41.375Z,12.29
2018-04-29T07:46:41.387Z,12.34
2018-04-29T07:47:41.407Z,12.31
2018-04-29T07:48:41.413Z,12.34
2018-04-29T07:49:41.428Z,12.32
2018-04-29T07:50:41.443Z,12.37
2018-04-29T07:51:41.458Z,12.39
2018-04-29T07:52:41.545Z,12.47
2018-04-29T07:53:41.486Z,12.54
2018-04-29T07:54:41.499Z,12.70
2018-04-29T07:55:41.512Z,12.85
2018-04-29T07:56:41.527Z,12.93
2018-04-29T07:57:41.541Z,13.03
2018-04-29T07:58:41.557Z,12.72
2018-04-29T07:59:41.595Z,12.78
2018-04-29T08:00:41.635Z,12.59
2018-04-29T08:01:41.598Z,12.78
2018-04-29T08:02:41.617Z,12.93
2018-04-29T08:03:41.634Z,12.86
2018-04-29T08:04:41.642Z,12.87
2018-04-29T08:05:41.659Z,13.01
2018-04-29T08:06:41.676Z,13.07
2018-04-29T08:07:41.687Z,12.87
2018-04-29T08:08:41.701Z,12.96
2018-04-29T08:09:41.725Z,12.97
2018-04-29T08:10:41.732Z,13.11
2018-04-29T08:11:41.746Z,13.28
2018-04-29T08:12:41.759Z,13.44
2018-04-29T08:13:41.775Z,13.67
2018-04-29T08:14:41.790Z,13.92
2018-04-29T08:15:41.900Z,13.70
2018-04-29T08:16:41.818Z,13.52
2018-04-29T08:17:41.834Z,13.49
2018-04-29T08:18:41.850Z,13.25
2018-04-29T08:19:41.865Z,13.20
2018-04-29T08:20:41.879Z,13.12
2018-04-29T08:21:41.898Z,13.26
2018-04-29T08:22:41.934Z,13.39
2018-04-29T08:23:41.925Z,13.52
2018-04-29T08:24:41.940Z,13.59
2018-04-29T08:25:41.956Z,13.54
2018-04-29T08:26:41.970Z,13.44
2018-04-29T08:27:41.984Z,13.28
2018-04-29T08:28:42.003Z,13.42
2018-04-29T08:29:42.017Z,13.62
2018-04-29T08:30:42.035Z,13.75
2018-04-29T08:31:42.055Z,13.79
2018-04-29T08:32:42.063Z,13.78
2018-04-29T08:33:42.080Z,13.70
2018-04-29T08:34:42.093Z,13.66
2018-04-29T08:35:42.110Z,13.57
2018-04-29T08:36:42.124Z,13.39
2018-04-29T08:37:42.137Z,13.30
2018-04-29T08:38:42.155Z,12.86
2018-04-29T08:39:42.170Z,12.85
2018-04-29T08:40:42.188Z,12.86
2018-04-29T08:41:42.208Z,13.04
2018-04-29T08:42:42.216Z,13.10
2018-04-29T08:43:42.234Z,13.25
2018-04-29T08:44:42.245Z,13.07
2018-04-29T08:45:42.266Z,12.85
2018-04-29T08:46:42.282Z,12.60
2018-04-29T08:47:42.294Z,12.38
2018-04-29T08:48:42.350Z,12.34
2018-04-29T08:49:42.324Z,12.52
2018-04-29T08:50:42.341Z,12.67
2018-04-29T08:51:42.356Z,12.79
2018-04-29T08:52:42.369Z,12.89
2018-04-29T08:53:42.388Z,12.93
2018-04-29T08:54:42.401Z,12.68
2018-04-29T08:55:42.417Z,12.82
2018-04-29T08:56:42.431Z,12.85
2018-04-29T08:57:42.447Z,13.00
2018-04-29T08:58:42.466Z,13.12
2018-04-29T08:59:42.482Z,12.93
2018-04-29T09:00:42.496Z,13.11
2018-04-29T09:01:42.531Z,13.26
2018-04-29T09:02:42.526Z,13.19
2018-04-29T09:03:42.665Z,13.23
2018-04-29T09:04:42.554Z,13.28
2018-04-29T09:05:42.574Z,13.36
2018-04-29T09:06:42.588Z,13.54
2018-04-29T09:07:42.608Z,13.71
2018-04-29T09:08:42.620Z,13.51
2018-04-29T09:09:42.633Z,13.28
2018-04-29T09:10:42.652Z,13.10
2018-04-29T09:11:42.674Z,13.11
2018-04-29T09:12:42.681Z,13.22
2018-04-29T09:13:42.697Z,13.07
2018-04-29T09:14:42.714Z,12.93
2018-04-29T09:15:42.728Z,12.87
2018-04-29T09:16:42.746Z,13.10
2018-04-29T09:17:42.775Z,13.51
2018-04-29T09:18:42.776Z,13.66
2018-04-29T09:19:42.790Z,13.71
2018-04-29T09:20:42.811Z,14.02
2018-04-29T09:21:42.821Z,14.54
2018-04-29T09:22:42.839Z,14.86
2018-04-29T09:23:42.854Z,15.31
2018-04-29T09:24:42.869Z,15.59
2018-04-29T09:25:42.886Z,15.29
2018-04-29T09:26:42.904Z,15.43
2018-04-29T09:27:42.918Z,15.89
2018-04-29T09:28:42.932Z,15.87
2018-04-29T09:29:42.951Z,15.87
2018-04-29T09:30:42.967Z,16.17
2018-04-29T09:31:42.983Z,16.25
2018-04-29T09:32:43.000Z,16.34
2018-04-29T09:33:43.013Z,16.28
2018-04-29T09:34:43.029Z,16.31
2018-04-29T09:35:43.044Z,16.42
2018-04-29T09:36:43.063Z,16.38
2018-04-29T09:37:43.081Z,16.24
2018-04-29T09:38:43.094Z,16.15
2018-04-29T09:39:43.112Z,16.34
2018-04-29T09:40:43.126Z,16.25
2018-04-29T09:41:43.149Z,16.09
2018-04-29T09:42:43.162Z,16.07
2018-04-29T09:43:43.218Z,16.12
2018-04-29T09:44:43.194Z,15.35
2018-04-29T09:45:43.212Z,15.36
2018-04-29T09:46:43.228Z,15.31
2018-04-29T09:47:43.245Z,15.44
2018-04-29T09:48:43.362Z,15.51
2018-04-29T09:49:43.279Z,15.17
2018-04-29T09:50:43.305Z,15.09
2018-04-29T09:51:43.316Z,15.21
2018-04-29T09:52:43.332Z,15.41
2018-04-29T09:53:43.349Z,15.46
2018-04-29T09:54:43.363Z,15.43
2018-04-29T09:55:43.384Z,15.65
2018-04-29T09:56:43.399Z,15.84
2018-04-29T09:57:43.417Z,15.83
2018-04-29T09:58:43.435Z,16.09
2018-04-29T09:59:43.451Z,16.31
2018-04-29T10:00:43.468Z,16.39
2018-04-29T10:01:43.487Z,15.43
2018-04-29T10:02:43.505Z,15.21
2018-04-29T10:03:43.522Z,15.07
2018-04-29T10:04:43.539Z,14.88
2018-04-29T10:05:43.554Z,15.14
2018-04-29T10:06:43.572Z,15.32
2018-04-29T10:07:43.596Z,16.12
2018-04-29T10:08:43.609Z,15.41
2018-04-29T10:09:43.630Z,14.39
2018-04-29T10:10:43.642Z,14.73
2018-04-29T10:11:43.666Z,15.14
2018-04-29T10:12:43.674Z,14.75
2018-04-29T10:13:43.701Z,14.91
2018-04-29T10:14:43.709Z,14.64
2018-04-29T10:15:43.725Z,14.40
2018-04-29T10:16:43.742Z,14.62
2018-04-29T10:17:43.762Z,14.69
2018-04-29T10:18:43.832Z,15.03
2018-04-29T10:19:43.795Z,15.06
2018-04-29T10:20:43.811Z,14.78
2018-04-29T10:21:43.826Z,14.62
2018-04-29T10:22:43.845Z,14.61
2018-04-29T10:23:43.862Z,14.17
2018-04-29T10:24:43.981Z,13.97
2018-04-29T10:25:43.894Z,14.43
2018-04-29T10:26:43.914Z,14.68
2018-04-29T10:27:43.931Z,15.19
2018-04-29T10:28:43.952Z,14.73
2018-04-29T10:29:43.965Z,14.58
2018-04-29T10:30:43.978Z,14.83
2018-04-29T10:31:43.996Z,14.72
2018-04-29T10:32:44.066Z,14.68
2018-04-29T10:33:44.029Z,14.98
2018-04-29T10:34:44.058Z,15.29
2018-04-29T10:35:44.064Z,15.17
2018-04-29T10:36:44.078Z,15.50
2018-04-29T10:37:44.097Z,15.43
2018-04-29T10:38:44.111Z,15.14
2018-04-29T10:39:44.128Z,14.80
2018-04-29T10:40:44.147Z,15.46
2018-04-29T10:41:44.162Z,16.21
2018-04-29T10:42:44.179Z,15.93
2018-04-29T10:43:44.195Z,15.93
2018-04-29T10:44:44.217Z,15.86
2018-04-29T10:45:44.229Z,16.73
2018-04-29T10:46:44.252Z,15.89
2018-04-29T10:47:44.263Z,15.53
2018-04-29T10:48:44.280Z,15.60
2018-04-29T10:49:44.298Z,15.57
2018-04-29T10:50:44.312Z,15.94
2018-04-29T10:51:44.331Z,15.35
2018-04-29T10:52:44.346Z,14.89
2018-04-29T10:53:44.362Z,14.89
2018-04-29T10:54:44.632Z,15.62
2018-04-29T10:55:44.397Z,16.12
2018-04-29T10:56:44.465Z,16.34
2018-04-29T10:57:44.431Z,16.38
2018-04-29T10:58:44.466Z,16.46
2018-04-29T10:59:44.464Z,16.82
2018-04-29T11:00:44.482Z,17.04
2018-04-29T11:01:44.497Z,16.48
2018-04-29T11:02:44.520Z,15.86
2018-04-29T11:03:44.537Z,15.93
2018-04-29T11:04:44.550Z,16.01
2018-04-29T11:05:44.567Z,15.90
2018-04-29T11:06:44.585Z,15.59
2018-04-29T11:07:44.601Z,15.86
2018-04-29T11:08:44.619Z,15.47
2018-04-29T11:09:44.638Z,15.28
2018-04-29T11:10:44.658Z,15.03
2018-04-29T11:11:44.751Z,15.20
2018-04-29T11:12:44.690Z,15.39
2018-04-29T11:13:44.708Z,15.74
2018-04-29T11:14:44.741Z,15.54
2018-04-29T11:15:44.741Z,15.80
2018-04-29T11:16:44.758Z,15.53
2018-04-29T11:17:44.775Z,15.14
2018-04-29T11:18:44.791Z,15.11
2018-04-29T11:19:44.809Z,15.13
2018-04-29T11:20:44.824Z,15.38
2018-04-29T11:21:44.842Z,15.78
2018-04-29T11:22:44.862Z,16.11
2018-04-29T11:23:44.878Z,16.09
2018-04-29T11:24:44.893Z,15.84
2018-04-29T11:25:44.914Z,15.96
2018-04-29T11:26:44.931Z,16.05
2018-04-29T11:27:44.948Z,15.51
2018-04-29T11:28:44.968Z,15.03
2018-04-29T11:29:44.983Z,14.64
2018-04-29T11:30:45.000Z,14.50
2018-04-29T11:31:45.023Z,14.35
2018-04-29T11:32:45.034Z,14.28
2018-04-29T11:33:45.055Z,14.17
2018-04-29T11:34:45.071Z,14.51
2018-04-29T11:35:45.088Z,14.60
2018-04-29T11:36:45.102Z,14.57
2018-04-29T11:37:45.122Z,14.58
2018-04-29T11:38:45.137Z,14.24
2018-04-29T11:39:45.159Z,14.15
2018-04-29T11:40:45.171Z,14.10
2018-04-29T11:41:45.190Z,13.75
2018-04-29T11:42:45.206Z,13.84
2018-04-29T11:43:45.222Z,14.10
2018-04-29T11:44:45.234Z,13.85
2018-04-29T11:45:45.259Z,13.73
2018-04-29T11:46:45.274Z,13.63
2018-04-29T11:47:45.286Z,13.89
2018-04-29T11:48:45.306Z,13.89
2018-04-29T11:49:45.328Z,14.06
2018-04-29T11:50:45.336Z,14.14
2018-04-29T11:51:45.352Z,14.32
2018-04-29T11:52:45.371Z,14.42
2018-04-29T11:53:45.384Z,14.51
2018-04-29T11:54:45.407Z,14.98
2018-04-29T11:55:45.421Z,15.38
2018-04-29T11:56:45.440Z,15.34
2018-04-29T11:57:45.453Z,15.54
2018-04-29T11:58:45.468Z,15.51
2018-04-29T11:59:45.497Z,15.60
2018-04-29T12:00:45.499Z,15.34
2018-04-29T12:01:45.516Z,14.92
2018-04-29T12:02:45.536Z,14.45
2018-04-29T12:03:45.551Z,14.46
2018-04-29T12:04:45.569Z,14.40
2018-04-29T12:05:45.587Z,14.51
2018-04-29T12:06:45.605Z,14.55
2018-04-29T12:07:45.618Z,14.18
2018-04-29T12:08:45.637Z,14.09
2018-04-29T12:09:45.669Z,13.81
2018-04-29T12:10:45.668Z,13.60
2018-04-29T12:11:45.683Z,13.75
2018-04-29T12:12:45.699Z,13.51
2018-04-29T12:13:45.716Z,13.44
2018-04-29T12:14:45.733Z,13.42
2018-04-29T12:15:45.748Z,13.67
2018-04-29T12:16:45.764Z,13.60
2018-04-29T12:17:45.781Z,13.71
2018-04-29T12:18:45.801Z,13.36
2018-04-29T12:19:45.817Z,13.51
2018-04-29T12:20:45.832Z,13.78
2018-04-29T12:21:45.846Z,13.92
2018-04-29T12:22:45.864Z,14.03
2018-04-29T12:23:45.882Z,14.17
2018-04-29T12:24:45.899Z,14.21
2018-04-29T12:25:45.914Z,13.81
2018-04-29T12:26:45.931Z,13.59
2018-04-29T12:27:45.944Z,13.46
2018-04-29T12:28:45.962Z,13.10
2018-04-29T12:29:45.976Z,13.08
2018-04-29T12:30:45.995Z,13.33
2018-04-29T12:31:46.009Z,13.60
2018-04-29T12:32:46.025Z,13.89
2018-04-29T12:33:46.154Z,14.27
2018-04-29T12:34:46.058Z,14.57
2018-04-29T12:35:46.074Z,14.80
2018-04-29T12:36:46.091Z,14.94
2018-04-29T12:37:46.105Z,14.77
2018-04-29T12:38:46.124Z,14.54
2018-04-29T12:39:46.186Z,14.47
2018-04-29T12:40:46.158Z,14.68
2018-04-29T12:41:46.174Z,14.33
2018-04-29T12:42:46.191Z,14.60
2018-04-29T12:43:46.209Z,14.61
2018-04-29T12:44:46.226Z,14.72
2018-04-29T12:45:46.243Z,14.86
2018-04-29T12:46:46.364Z,14.32
2018-04-29T12:47:46.287Z,14.21
2018-04-29T12:48:46.292Z,14.28
2018-04-29T12:49:46.308Z,14.58
2018-04-29T12:50:46.326Z,14.99
2018-04-29T12:51:46.344Z,15.44
2018-04-29T12:52:46.358Z,15.76
2018-04-29T12:53:46.378Z,15.60
2018-04-29T12:54:46.402Z,15.72
2018-04-29T12:55:46.409Z,15.53
2018-04-29T12:56:46.427Z,15.02
2018-04-29T12:57:46.444Z,15.01
2018-04-29T12:58:46.469Z,15.14
2018-04-29T12:59:46.482Z,15.11
2018-04-29T13:00:46.501Z,14.89
2018-04-29T13:01:46.515Z,14.86
2018-04-29T13:02:46.531Z,14.65
2018-04-29T13:03:46.554Z,14.83
2018-04-29T13:04:46.569Z,14.96
2018-04-29T13:05:46.694Z,15.11
2018-04-29T13:06:46.603Z,15.60